createdAt,value
2022-09-09T00:00:47.912Z,2.70
2022-09-09T00:03:48.645Z,2.50
2022-09-09T00:06:29.961Z,2.80
2022-09-09T00:09:17.220Z,2.60
2022-09-09T00:11:59.796Z,2.70
2022-09-09T00:14:57.564Z,2.20
2022-09-09T00:17:43.497Z,2.70
2022-09-09T00:20:29.654Z,2.40
2022-09-09T00:23:15.782Z,2.70
2022-09-09T00:25:56.168Z,3.10
2022-09-09T00:28:28.190Z,2.70
2022-09-09T00:30:58.652Z,2.70
2022-09-09T00:33:28.704Z,2.80
2022-09-09T00:36:01.557Z,2.60
2022-09-09T00:38:41.972Z,2.70
2022-09-09T00:41:20.039Z,3.00
2022-09-09T00:44:05.367Z,3.10
2022-09-09T00:46:40.100Z,3.50
2022-09-09T00:49:37.340Z,3.30
2022-09-09T00:52:19.851Z,2.40
2022-09-09T00:55:04.755Z,3.20
2022-09-09T00:57:35.905Z,2.50
2022-09-09T01:00:07.461Z,3.20
2022-09-09T01:02:52.531Z,3.70
2022-09-09T01:05:24.731Z,3.10
2022-09-09T01:07:58.127Z,2.50
2022-09-09T01:10:50.800Z,2.90
2022-09-09T01:13:33.012Z,2.80
2022-09-09T01:16:09.432Z,3.40
2022-09-09T01:18:47.416Z,3.20
2022-09-09T01:21:29.111Z,3.00
2022-09-09T01:24:17.159Z,2.60
2022-09-09T01:27:12.697Z,3.00
2022-09-09T01:29:41.214Z,2.50
2022-09-09T01:32:40.729Z,3.20
2022-09-09T01:35:22.904Z,3.20
2022-09-09T01:37:52.149Z,3.30
2022-09-09T01:40:21.075Z,2.90
2022-09-09T01:42:50.975Z,2.40
2022-09-09T01:45:21.262Z,2.90
2022-09-09T01:47:50.669Z,2.80
2022-09-09T01:50:35.166Z,3.40
2022-09-09T01:53:07.955Z,2.90
2022-09-09T01:55:41.987Z,2.90
2022-09-09T01:58:36.019Z,2.90
2022-09-09T02:01:16.929Z,2.60
2022-09-09T02:03:53.187Z,3.30
2022-09-09T02:06:41.808Z,2.90
2022-09-09T02:09:24.258Z,3.10
2022-09-09T02:12:09.565Z,3.20
2022-09-09T02:14:59.847Z,2.40
2022-09-09T02:17:35.520Z,3.20
2022-09-09T02:20:14.188Z,3.00
2022-09-09T02:22:58.733Z,3.00
2022-09-09T02:25:31.148Z,4.30
2022-09-09T02:28:11.912Z,3.70
2022-09-09T02:30:44.885Z,3.50
2022-09-09T02:33:16.168Z,2.80
2022-09-09T02:35:48.253Z,2.70
2022-09-09T02:38:23.474Z,3.00
2022-09-09T02:41:03.574Z,3.10
2022-09-09T02:43:33.764Z,3.50
2022-09-09T02:46:44.144Z,3.90
2022-09-09T02:49:52.280Z,3.20
2022-09-09T02:52:50.739Z,2.50
2022-09-09T02:55:46.512Z,4.90
2022-09-09T02:58:21.214Z,3.70
2022-09-09T03:00:59.296Z,3.00
2022-09-09T03:03:28.672Z,2.90
2022-09-09T03:05:58.363Z,4.90
2022-09-09T03:08:28.767Z,3.40
2022-09-09T03:11:01.318Z,2.90
2022-09-09T03:13:30.972Z,3.00
2022-09-09T03:16:00.320Z,2.70
2022-09-09T03:18:29.880Z,3.10
2022-09-09T03:21:00.905Z,2.80
2022-09-09T03:23:30.880Z,2.40
2022-09-09T03:26:01.584Z,2.40
2022-09-09T03:28:38.218Z,2.60
2022-09-09T03:31:11.672Z,3.00
2022-09-09T03:33:43.932Z,3.50
2022-09-09T03:36:16.224Z,2.70
2022-09-09T03:38:45.479Z,5.10
2022-09-09T03:41:38.556Z,3.60
2022-09-09T03:44:08.778Z,4.80
2022-09-09T03:46:40.491Z,4.80
2022-09-09T03:49:09.298Z,6.10
2022-09-09T03:51:38.357Z,6.40
2022-09-09T03:54:09.741Z,7.70
2022-09-09T03:56:38.855Z,7.40
2022-09-09T03:59:07.568Z,6.40
2022-09-09T04:01:36.300Z,5.40
2022-09-09T04:04:04.949Z,4.00
2022-09-09T04:06:34.040Z,4.30
2022-09-09T04:09:04.551Z,4.30
2022-09-09T04:11:33.837Z,4.30
2022-09-09T04:14:02.744Z,3.90
2022-09-09T04:16:31.521Z,4.20
2022-09-09T04:19:01.346Z,7.30
2022-09-09T04:21:29.942Z,13.10
2022-09-09T04:23:58.521Z,5.00
2022-09-09T04:26:28.097Z,4.10
2022-09-09T04:28:57.298Z,4.20
2022-09-09T04:31:26.078Z,4.00
2022-09-09T04:33:56.988Z,4.00
2022-09-09T04:36:26.155Z,4.20
2022-09-09T04:38:58.035Z,4.50
2022-09-09T04:41:27.873Z,4.20
2022-09-09T04:43:56.675Z,4.20
2022-09-09T04:46:25.882Z,4.30
2022-09-09T04:48:55.350Z,4.50
2022-09-09T04:51:24.738Z,4.50
2022-09-09T04:53:55.267Z,4.30
2022-09-09T04:56:24.089Z,4.40
2022-09-09T04:58:55.864Z,5.50
2022-09-09T05:01:28.742Z,5.00
2022-09-09T05:04:03.351Z,4.90
2022-09-09T05:06:32.916Z,5.20
2022-09-09T05:09:02.181Z,5.90
2022-09-09T05:14:07.128Z,6.40
2022-09-09T05:16:36.482Z,6.00
2022-09-09T05:19:05.285Z,6.40
2022-09-09T05:21:45.091Z,5.90
2022-09-09T05:24:14.268Z,7.80
2022-09-09T05:26:43.087Z,6.40
2022-09-09T05:29:12.200Z,5.30
2022-09-09T05:31:40.943Z,5.20
2022-09-09T05:34:13.458Z,5.10
2022-09-09T05:36:44.160Z,7.00
2022-09-09T05:39:14.530Z,9.40
2022-09-09T05:41:43.646Z,20.20
2022-09-09T05:44:12.708Z,56.80
2022-09-09T05:49:11.733Z,33.20
2022-09-09T05:51:40.374Z,20.50
2022-09-09T05:54:16.276Z,9.50
2022-09-09T05:56:51.464Z,8.90
2022-09-09T05:59:21.109Z,3.70
2022-09-09T06:01:49.622Z,5.10
2022-09-09T06:04:37.524Z,3.50
2022-09-09T06:07:06.953Z,3.90
2022-09-09T06:12:05.001Z,3.40
2022-09-09T06:14:35.156Z,3.60
2022-09-09T06:17:04.327Z,4.80
2022-09-09T06:19:33.635Z,4.90
2022-09-09T06:22:02.513Z,4.70
2022-09-09T06:24:32.892Z,3.60
2022-09-09T06:27:02.731Z,3.80
2022-09-09T06:29:34.487Z,3.70
2022-09-09T06:32:04.886Z,3.20
2022-09-09T06:34:33.507Z,3.70
2022-09-09T06:37:02.275Z,4.50
2022-09-09T06:39:45.148Z,3.90
2022-09-09T06:42:13.695Z,3.50
2022-09-09T06:44:52.004Z,5.60
2022-09-09T06:47:36.214Z,4.40
2022-09-09T06:50:06.770Z,4.80
2022-09-09T06:52:35.680Z,4.30
2022-09-09T06:55:05.104Z,5.10
2022-09-09T06:57:37.407Z,4.40
2022-09-09T07:00:15.452Z,4.70
2022-09-09T07:02:44.657Z,4.70
2022-09-09T07:05:14.176Z,4.30
2022-09-09T07:07:44.272Z,4.50
2022-09-09T07:10:13.932Z,3.50
2022-09-09T07:12:42.606Z,3.40
2022-09-09T07:17:44.297Z,3.50
2022-09-09T07:20:13.504Z,3.70
2022-09-09T07:22:42.665Z,2.60
2022-09-09T07:25:12.803Z,3.00
2022-09-09T07:27:42.008Z,3.50
2022-09-09T07:30:14.811Z,3.50
2022-09-09T07:32:47.621Z,3.60
2022-09-09T07:35:16.157Z,3.40
2022-09-09T07:37:50.663Z,5.00
2022-09-09T07:40:23.701Z,3.70
2022-09-09T07:42:52.323Z,5.60
2022-09-09T07:45:20.939Z,2.60
2022-09-09T07:47:50.442Z,3.00
2022-09-09T07:50:19.507Z,2.90
2022-09-09T07:52:48.171Z,3.10
2022-09-09T07:55:17.109Z,3.10
2022-09-09T07:57:58.810Z,2.60
2022-09-09T08:00:45.285Z,4.10
2022-09-09T08:03:14.546Z,2.80
2022-09-09T08:05:44.414Z,2.30
2022-09-09T08:08:13.087Z,2.50
2022-09-09T08:10:42.203Z,2.20
2022-09-09T08:13:18.191Z,2.20
2022-09-09T08:15:48.974Z,2.40
2022-09-09T08:20:46.922Z,3.50
2022-09-09T08:23:16.705Z,2.80
2022-09-09T08:25:46.974Z,3.50
2022-09-09T08:28:15.874Z,4.10
2022-09-09T08:30:44.523Z,4.20
2022-09-09T08:33:14.056Z,2.60
2022-09-09T08:35:51.630Z,2.20
2022-09-09T08:38:22.406Z,2.20
2022-09-09T08:41:01.185Z,2.40
2022-09-09T08:43:33.572Z,2.60
2022-09-09T08:46:17.036Z,2.80
2022-09-09T08:48:59.384Z,2.70
2022-09-09T08:51:32.508Z,2.50
2022-09-09T08:54:04.505Z,2.50
2022-09-09T08:56:34.817Z,2.50
2022-09-09T08:59:04.695Z,3.10
2022-09-09T09:01:56.395Z,2.10
2022-09-09T09:04:54.040Z,2.90
2022-09-09T09:07:44.930Z,1.80
2022-09-09T09:10:40.564Z,1.80
2022-09-09T09:13:15.452Z,2.80
2022-09-09T09:15:48.327Z,2.20
2022-09-09T09:18:18.598Z,2.10
2022-09-09T09:21:20.032Z,5.80
2022-09-09T09:23:59.217Z,2.20
2022-09-09T09:26:34.586Z,2.10
2022-09-09T09:29:13.718Z,2.60
2022-09-09T09:31:52.796Z,2.00
2022-09-09T09:34:21.874Z,3.90
2022-09-09T09:37:06.320Z,3.30
2022-09-09T09:42:31.531Z,2.30
2022-09-09T09:45:10.288Z,5.10
2022-09-09T09:47:39.187Z,2.40
2022-09-09T09:50:21.038Z,3.30
2022-09-09T09:52:59.870Z,3.30
2022-09-09T09:55:32.054Z,1.70
2022-09-09T10:00:50.981Z,2.20
2022-09-09T10:03:24.429Z,2.70
2022-09-09T10:05:53.866Z,2.80
2022-09-09T10:08:22.638Z,4.70
2022-09-09T10:10:59.431Z,2.90
2022-09-09T10:14:05.060Z,2.40
2022-09-09T10:16:40.898Z,2.20
2022-09-09T10:19:22.662Z,2.80
2022-09-09T10:22:00.687Z,2.00
2022-09-09T10:24:42.690Z,1.90
2022-09-09T10:27:41.397Z,3.10
2022-09-09T10:30:28.580Z,2.30
2022-09-09T10:33:14.837Z,2.00
2022-09-09T10:35:53.787Z,2.40
2022-09-09T10:38:40.227Z,2.40
2022-09-09T10:41:52.707Z,2.60
2022-09-09T10:44:40.224Z,1.70
2022-09-09T10:47:39.227Z,4.90
2022-09-09T10:51:00.422Z,4.60
2022-09-09T10:53:58.944Z,2.30
2022-09-09T10:56:28.680Z,2.50
2022-09-09T10:59:03.938Z,3.50
2022-09-09T11:01:53.343Z,2.60
2022-09-09T11:04:25.372Z,1.30
2022-09-09T11:06:57.127Z,2.10
2022-09-09T11:09:38.067Z,1.70
2022-09-09T11:12:07.137Z,2.70
2022-09-09T11:14:46.361Z,1.50
2022-09-09T11:17:22.208Z,1.50
2022-09-09T11:19:51.039Z,2.00
2022-09-09T11:22:36.655Z,2.20
2022-09-09T11:25:15.366Z,2.00
2022-09-09T11:28:12.841Z,2.30
2022-09-09T11:31:10.709Z,2.30
2022-09-09T11:33:54.608Z,1.90
2022-09-09T11:36:40.094Z,1.90
2022-09-09T11:39:41.049Z,2.30
2022-09-09T11:42:22.174Z,2.20
2022-09-09T11:44:51.389Z,2.00
2022-09-09T11:47:32.492Z,2.30
2022-09-09T11:50:16.391Z,2.20
2022-09-09T11:52:48.647Z,1.80
2022-09-09T11:55:34.386Z,3.40
2022-09-09T11:58:07.607Z,2.50
2022-09-09T12:00:43.194Z,4.30
2022-09-09T12:03:30.356Z,2.10
2022-09-09T12:06:00.886Z,2.90
2022-09-09T12:08:30.603Z,1.90
2022-09-09T12:11:04.980Z,2.50
2022-09-09T12:13:33.706Z,2.30
2022-09-09T12:16:06.562Z,2.00
2022-09-09T12:18:45.817Z,2.00
2022-09-09T12:21:32.209Z,2.60
2022-09-09T12:24:06.871Z,2.20
2022-09-09T12:26:38.801Z,2.10
2022-09-09T12:29:13.939Z,2.10
2022-09-09T12:31:49.898Z,2.10
2022-09-09T12:34:42.554Z,2.60
2022-09-09T12:37:37.873Z,2.40
2022-09-09T12:40:25.131Z,2.30
2022-09-09T12:42:55.565Z,2.20
2022-09-09T12:45:27.468Z,2.80
2022-09-09T12:48:04.822Z,2.80
2022-09-09T12:50:47.540Z,2.50
2022-09-09T12:53:30.343Z,1.90
2022-09-09T12:56:11.457Z,1.70
2022-09-09T12:58:41.533Z,2.40
2022-09-09T13:01:25.040Z,1.70
2022-09-09T13:03:56.728Z,1.70
2022-09-09T13:06:29.383Z,2.30
2022-09-09T13:09:05.227Z,3.10
2022-09-09T13:11:49.370Z,4.60
2022-09-09T13:14:29.911Z,3.20
2022-09-09T13:17:02.047Z,2.40
2022-09-09T13:19:36.643Z,1.80
2022-09-09T13:22:31.524Z,1.30
2022-09-09T13:25:12.979Z,1.90
2022-09-09T13:27:44.275Z,1.50
2022-09-09T13:30:29.975Z,1.60
2022-09-09T13:33:06.455Z,1.40
2022-09-09T13:35:35.890Z,1.80
2022-09-09T13:38:10.845Z,1.40
2022-09-09T13:40:39.889Z,2.40
2022-09-09T13:43:22.901Z,2.80
2022-09-09T13:46:07.801Z,3.20
2022-09-09T13:48:37.125Z,1.80
2022-09-09T13:51:06.549Z,2.20
2022-09-09T13:53:35.292Z,2.00
2022-09-09T13:56:04.159Z,1.70
2022-09-09T13:58:32.801Z,1.90
2022-09-09T14:01:01.369Z,2.00
2022-09-09T14:03:30.606Z,1.60
2022-09-09T14:05:59.641Z,2.10
2022-09-09T14:08:38.446Z,2.50
2022-09-09T14:11:07.776Z,1.80
2022-09-09T14:13:39.088Z,1.80
2022-09-09T14:16:07.700Z,2.30
2022-09-09T14:18:37.141Z,1.90
2022-09-09T14:21:06.329Z,1.90
2022-09-09T14:23:34.874Z,1.70
2022-09-09T14:26:03.879Z,3.00
2022-09-09T14:28:54.418Z,2.10
2022-09-09T14:31:25.705Z,2.30
2022-09-09T14:33:54.420Z,2.10
2022-09-09T14:36:25.596Z,1.90
2022-09-09T14:38:54.402Z,2.30
2022-09-09T14:41:23.912Z,1.90
2022-09-09T14:43:53.281Z,1.80
2022-09-09T14:46:22.466Z,1.70
2022-09-09T14:48:51.214Z,2.10
2022-09-09T14:51:23.905Z,2.40
2022-09-09T14:53:58.544Z,2.60
2022-09-09T14:56:30.843Z,2.00
2022-09-09T14:59:02.157Z,1.80
2022-09-09T15:01:33.092Z,2.20
2022-09-09T15:04:05.609Z,2.00
2022-09-09T15:06:38.585Z,2.50
2022-09-09T15:09:07.573Z,2.40
2022-09-09T15:11:41.280Z,2.00
2022-09-09T15:14:11.581Z,2.10
2022-09-09T15:16:41.357Z,2.20
2022-09-09T15:19:10.571Z,1.70
2022-09-09T15:21:39.963Z,1.80
2022-09-09T15:24:09.602Z,2.10
2022-09-09T15:26:42.260Z,2.30
2022-09-09T15:29:11.152Z,2.20
2022-09-09T15:31:40.070Z,3.00
2022-09-09T15:34:09.439Z,2.10
2022-09-09T15:36:43.888Z,1.70
2022-09-09T15:39:17.462Z,1.90
2022-09-09T15:41:49.066Z,1.80
2022-09-09T15:44:17.752Z,1.90
2022-09-09T15:46:51.420Z,1.70
2022-09-09T15:49:27.496Z,1.50
2022-09-09T15:52:03.807Z,1.90
2022-09-09T15:54:35.536Z,2.80
2022-09-09T15:57:06.507Z,1.90
2022-09-09T15:59:35.659Z,2.30
2022-09-09T16:02:04.911Z,2.20
2022-09-09T16:04:35.469Z,2.40
2022-09-09T16:09:34.188Z,1.90
2022-09-09T16:12:09.359Z,2.10
2022-09-09T16:14:38.173Z,2.20
2022-09-09T16:17:07.516Z,2.10
2022-09-09T16:19:36.592Z,2.70
2022-09-09T16:22:07.724Z,3.10
2022-09-09T16:24:36.601Z,2.60
2022-09-09T16:27:05.531Z,2.30
2022-09-09T16:29:34.425Z,2.00
2022-09-09T16:32:04.414Z,1.90
2022-09-09T16:34:34.981Z,2.40
2022-09-09T16:37:03.957Z,2.00
2022-09-09T16:39:32.848Z,2.10
2022-09-09T16:42:02.027Z,3.10
2022-09-09T16:44:31.245Z,3.50
2022-09-09T16:47:01.154Z,2.80
2022-09-09T16:49:31.188Z,2.20
2022-09-09T16:52:01.369Z,3.90
2022-09-09T16:54:30.454Z,2.60
2022-09-09T16:57:01.075Z,2.60
2022-09-09T16:59:29.814Z,3.20
2022-09-09T17:02:15.184Z,2.50
2022-09-09T17:05:05.453Z,2.20
2022-09-09T17:07:54.064Z,2.60
2022-09-09T17:10:38.457Z,2.80
2022-09-09T17:13:40.093Z,2.90
2022-09-09T17:16:30.474Z,2.60
2022-09-09T17:19:25.538Z,2.70
2022-09-09T17:22:17.676Z,3.40
2022-09-09T17:25:16.890Z,3.70
2022-09-09T17:28:01.962Z,3.60
2022-09-09T17:31:02.834Z,4.00
2022-09-09T17:33:54.069Z,4.40
2022-09-09T17:36:44.470Z,4.40
2022-09-09T17:39:34.936Z,4.20
2022-09-09T17:42:18.085Z,5.00
2022-09-09T17:44:47.008Z,8.10
2022-09-09T17:47:15.503Z,4.40
2022-09-09T17:49:44.671Z,5.50
2022-09-09T17:52:13.195Z,32.20
2022-09-09T17:54:42.815Z,6.80
2022-09-09T17:57:11.871Z,6.50
2022-09-09T17:59:42.344Z,5.50
2022-09-09T18:02:13.195Z,5.50
2022-09-09T18:04:43.155Z,7.50
2022-09-09T18:07:11.790Z,5.20
2022-09-09T18:09:40.822Z,5.30
2022-09-09T18:12:09.647Z,5.50
2022-09-09T18:14:38.117Z,5.20
2022-09-09T18:17:07.174Z,4.50
2022-09-09T18:19:36.170Z,4.80
2022-09-09T18:22:07.231Z,3.90
2022-09-09T18:24:36.866Z,5.60
2022-09-09T18:27:05.778Z,5.10
2022-09-09T18:29:34.647Z,4.70
2022-09-09T18:32:03.772Z,3.50
2022-09-09T18:34:32.727Z,2.70
2022-09-09T18:37:01.387Z,2.70
2022-09-09T18:39:30.524Z,2.40
2022-09-09T18:42:01.811Z,2.30
2022-09-09T18:44:33.755Z,1.50
2022-09-09T18:47:04.057Z,1.70
2022-09-09T18:49:33.991Z,1.60
2022-09-09T18:52:03.642Z,1.40
2022-09-09T18:54:34.577Z,2.10
2022-09-09T18:57:03.499Z,2.10
2022-09-09T18:59:32.415Z,2.10
2022-09-09T19:02:01.094Z,2.00
2022-09-09T19:04:32.001Z,1.70
2022-09-09T19:07:00.957Z,1.60
2022-09-09T19:09:32.763Z,2.30
2022-09-09T19:12:02.221Z,1.90
2022-09-09T19:14:31.063Z,1.60
2022-09-09T19:17:00.364Z,1.80
2022-09-09T19:19:32.787Z,2.20
2022-09-09T19:22:02.199Z,1.30
2022-09-09T19:24:33.149Z,1.60
2022-09-09T19:27:05.016Z,2.00
2022-09-09T19:29:36.793Z,2.40
2022-09-09T19:34:55.392Z,1.80
2022-09-09T19:37:24.269Z,1.90
2022-09-09T19:39:52.819Z,2.90
2022-09-09T19:42:22.102Z,5.20
2022-09-09T19:44:51.450Z,4.20
2022-09-09T19:47:20.124Z,3.50
2022-09-09T19:49:48.851Z,3.20
2022-09-09T19:52:18.713Z,1.90
2022-09-09T19:54:47.149Z,2.30
2022-09-09T19:57:18.803Z,2.30
2022-09-09T19:59:47.795Z,2.50
2022-09-09T20:02:16.694Z,1.70
2022-09-09T20:04:45.258Z,1.90
2022-09-09T20:07:15.519Z,2.30
2022-09-09T20:09:44.561Z,2.20
2022-09-09T20:12:13.024Z,2.80
2022-09-09T20:14:41.715Z,2.70
2022-09-09T20:17:10.879Z,2.80
2022-09-09T20:19:40.179Z,2.50
2022-09-09T20:22:09.054Z,4.50
2022-09-09T20:24:37.738Z,2.20
2022-09-09T20:27:07.466Z,2.40
2022-09-09T20:29:37.845Z,3.10
2022-09-09T20:32:07.047Z,2.80
2022-09-09T20:34:35.806Z,2.20
2022-09-09T20:37:05.457Z,1.80
2022-09-09T20:39:35.957Z,2.00
2022-09-09T20:44:33.798Z,2.50
2022-09-09T20:47:06.826Z,3.00
2022-09-09T20:49:35.631Z,2.70
2022-09-09T20:52:04.421Z,2.70
2022-09-09T20:54:33.818Z,2.00
2022-09-09T20:57:03.527Z,2.00
2022-09-09T20:59:32.703Z,2.00
2022-09-09T21:02:02.672Z,2.20
2022-09-09T21:04:32.015Z,2.00
2022-09-09T21:07:01.152Z,2.40
2022-09-09T21:09:29.591Z,2.00
2022-09-09T21:11:59.103Z,2.20
2022-09-09T21:14:28.227Z,1.90
2022-09-09T21:16:57.090Z,2.30
2022-09-09T21:19:25.878Z,2.80
2022-09-09T21:21:54.744Z,2.80
2022-09-09T21:24:23.264Z,2.70
2022-09-09T21:26:52.069Z,2.60
2022-09-09T21:29:21.173Z,3.50
2022-09-09T21:31:49.770Z,3.40
2022-09-09T21:34:18.876Z,4.20
2022-09-09T21:36:47.918Z,4.40
2022-09-09T21:39:16.333Z,3.30
2022-09-09T21:41:45.157Z,3.50
2022-09-09T21:44:14.748Z,3.00
2022-09-09T21:46:44.241Z,3.90
2022-09-09T21:49:13.663Z,3.10
2022-09-09T21:51:42.640Z,2.40
2022-09-09T21:54:11.374Z,2.40
2022-09-09T21:56:40.017Z,2.40
2022-09-09T21:59:08.890Z,2.80
2022-09-09T22:01:37.587Z,2.60
2022-09-09T22:04:06.678Z,2.60
2022-09-09T22:06:35.705Z,1.90
2022-09-09T22:09:04.301Z,1.90
2022-09-09T22:11:32.971Z,2.20
2022-09-09T22:14:02.312Z,2.40
2022-09-09T22:16:31.962Z,2.80
2022-09-09T22:19:02.397Z,2.30
2022-09-09T22:21:33.283Z,1.70
2022-09-09T22:24:04.847Z,2.20
2022-09-09T22:26:36.717Z,2.00
2022-09-09T22:29:07.030Z,1.50
2022-09-09T22:31:36.544Z,1.60
2022-09-09T22:34:06.348Z,1.30
2022-09-09T22:36:35.274Z,1.80
2022-09-09T22:39:04.782Z,1.80
2022-09-09T22:41:34.183Z,1.80
2022-09-09T22:44:03.411Z,1.30
2022-09-09T22:46:32.153Z,1.40
2022-09-09T22:49:02.415Z,1.80
2022-09-09T22:54:00.642Z,1.60
2022-09-09T22:56:29.263Z,1.50
2022-09-09T22:58:58.349Z,1.20
2022-09-09T23:01:28.064Z,1.00
2022-09-09T23:04:03.243Z,1.60
2022-09-09T23:06:32.014Z,1.10
2022-09-09T23:09:02.455Z,0.80
2022-09-09T23:11:34.117Z,1.30
2022-09-09T23:14:05.015Z,1.00
2022-09-09T23:16:40.177Z,1.40
2022-09-09T23:19:11.882Z,1.30
2022-09-09T23:21:41.107Z,1.00
2022-09-09T23:24:12.588Z,1.30
2022-09-09T23:26:43.999Z,1.20
2022-09-09T23:29:15.042Z,1.30
2022-09-09T23:31:45.339Z,1.40
2022-09-09T23:34:14.327Z,1.50
2022-09-09T23:36:43.329Z,1.10
2022-09-09T23:39:12.809Z,1.30
2022-09-09T23:41:41.792Z,1.10
2022-09-09T23:44:12.353Z,1.20
2022-09-09T23:46:41.266Z,1.10
2022-09-09T23:49:10.611Z,1.20
2022-09-09T23:51:39.200Z,1.10
2022-09-09T23:54:10.385Z,1.00
2022-09-09T23:56:41.678Z,0.90
2022-09-09T23:59:10.754Z,1.10
